Time;durP1;ratioP1;P1;durP2;ratioP2;P2;SDS_P1;SDS_P2;PMS_P1;PMS_P2;Temp;Humidity;BMP_temperature;BMP_pressure;BME280_temperature;BME280_humidity;BME280_pressure;Samples;Min_cycle;Max_cycle;Signal;HPM_P1;HPM_P2
2021/01/23 00:01:41;;;;;;;38.33;23.47;;;7.00;99.90;;;;;;4971192;28;20030;-55
2021/01/23 00:04:09;;;;;;;41.17;23.70;;;6.90;99.90;;;;;;4975457;28;20553;-58
2021/01/23 00:06:35;;;;;;;36.50;22.10;;;7.00;99.90;;;;;;4974121;28;20093;-55
2021/01/23 00:09:00;;;;;;;29.37;20.57;;;6.90;99.90;;;;;;4975969;28;20437;-57
2021/01/23 00:11:26;;;;;;;31.63;20.73;;;6.90;99.90;;;;;;4975592;28;20039;-56
2021/01/23 00:13:52;;;;;;;35.53;21.93;;;6.80;99.90;;;;;;4976012;28;20069;-58
2021/01/23 00:16:17;;;;;;;36.87;22.60;;;6.90;99.90;;;;;;4976713;28;20064;-57
2021/01/23 00:18:43;;;;;;;36.07;21.27;;;7.00;99.90;;;;;;4972521;28;20517;-56
2021/01/23 00:21:08;;;;;;;36.17;22.73;;;6.90;99.90;;;;;;4978851;28;20039;-55
2021/01/23 00:23:35;;;;;;;34.23;20.73;;;6.90;99.90;;;;;;4972700;28;20068;-58
2021/01/23 00:26:01;;;;;;;30.47;20.90;;;7.10;99.90;;;;;;4980387;28;20058;-55
2021/01/23 00:28:27;;;;;;;27.93;18.87;;;7.10;99.90;;;;;;4977290;28;20128;-56
2021/01/23 00:30:52;;;;;;;27.97;19.10;;;7.00;99.90;;;;;;4977528;28;20495;-56
2021/01/23 00:33:18;;;;;;;26.07;17.00;;;7.00;99.90;;;;;;4972056;28;20530;-56
2021/01/23 00:35:43;;;;;;;25.33;16.87;;;7.00;99.90;;;;;;4977627;28;20129;-58
2021/01/23 00:38:09;;;;;;;32.37;18.33;;;7.00;99.90;;;;;;4976981;28;20053;-57
2021/01/23 00:40:35;;;;;;;22.47;17.03;;;7.00;99.90;;;;;;4971561;28;20043;-58
2021/01/23 00:43:00;;;;;;;23.00;16.70;;;6.90;99.90;;;;;;4981863;28;20399;-57
2021/01/23 00:45:26;;;;;;;19.47;14.20;;;6.80;99.90;;;;;;4975126;28;20508;-56
2021/01/23 00:47:52;;;;;;;22.93;15.90;;;6.90;99.90;;;;;;4972885;28;20419;-57
2021/01/23 00:50:17;;;;;;;19.23;14.87;;;6.90;99.90;;;;;;4971664;28;20038;-58
2021/01/23 00:52:43;;;;;;;21.00;14.77;;;6.90;99.90;;;;;;4973342;28;20046;-56
2021/01/23 00:55:10;;;;;;;21.20;14.53;;;6.90;99.90;;;;;;4975787;28;20038;-57
2021/01/23 00:57:36;;;;;;;19.47;14.97;;;6.80;99.90;;;;;;4976942;28;20115;-57
2021/01/23 01:00:01;;;;;;;22.97;17.07;;;6.80;99.90;;;;;;4970025;28;20042;-56
2021/01/23 01:02:27;;;;;;;18.27;14.03;;;6.90;99.90;;;;;;4977041;28;20468;-57
2021/01/23 01:04:53;;;;;;;16.93;13.37;;;6.90;99.90;;;;;;4976632;28;20039;-56
2021/01/23 01:07:18;;;;;;;16.07;12.70;;;7.00;99.90;;;;;;4973098;28;20073;-55
2021/01/23 01:09:44;;;;;;;17.30;12.40;;;6.90;99.90;;;;;;4976801;28;20066;-55
2021/01/23 01:12:09;;;;;;;17.50;12.93;;;6.80;99.90;;;;;;4977526;28;20038;-56
2021/01/23 01:14:35;;;;;;;15.63;12.77;;;6.90;99.90;;;;;;4980367;28;20395;-56
2021/01/23 01:17:01;;;;;;;16.37;11.70;;;6.90;99.90;;;;;;4968598;28;20157;-56
2021/01/23 01:19:26;;;;;;;15.07;11.80;;;6.90;99.90;;;;;;4979303;28;20453;-56
2021/01/23 01:21:52;;;;;;;13.20;11.73;;;6.90;99.90;;;;;;4976534;28;20490;-56
2021/01/23 01:24:18;;;;;;;14.90;11.77;;;6.80;99.90;;;;;;4978018;28;20047;-55
2021/01/23 01:26:43;;;;;;;15.53;12.30;;;6.80;99.90;;;;;;4975290;28;20030;-56
2021/01/23 01:29:09;;;;;;;16.33;11.80;;;6.90;99.90;;;;;;4974725;28;20068;-56
2021/01/23 01:31:34;;;;;;;14.57;12.40;;;7.00;99.90;;;;;;4976776;28;20072;-57
2021/01/23 01:34:00;;;;;;;15.73;12.23;;;7.00;99.90;;;;;;4978250;28;20478;-57
2021/01/23 01:36:26;;;;;;;12.97;10.53;;;7.00;99.90;;;;;;4979077;28;20561;-57
2021/01/23 01:38:51;;;;;;;15.80;12.83;;;7.00;99.90;;;;;;4977522;28;20042;-54
2021/01/23 01:41:17;;;;;;;13.30;10.60;;;6.90;99.90;;;;;;4976477;28;20041;-52
2021/01/23 01:43:45;;;;;;;15.07;12.33;;;6.90;99.90;;;;;;4979020;28;20038;-55
2021/01/23 01:46:12;;;;;;;12.60;11.33;;;6.90;99.90;;;;;;4978128;28;20479;-55
2021/01/23 01:48:38;;;;;;;14.53;11.87;;;6.90;99.90;;;;;;4974610;28;20073;-56
2021/01/23 01:51:04;;;;;;;12.37;10.87;;;7.00;99.90;;;;;;4979392;28;20124;-57
2021/01/23 01:53:30;;;;;;;11.93;10.73;;;7.00;99.90;;;;;;4976446;28;20095;-56
2021/01/23 01:55:56;;;;;;;12.27;10.97;;;7.00;99.90;;;;;;4977978;28;20129;-55
2021/01/23 01:58:22;;;;;;;14.60;12.80;;;7.00;99.90;;;;;;4975272;28;20513;-55
2021/01/23 02:00:47;;;;;;;13.00;11.50;;;7.10;99.90;;;;;;4975745;28;20088;-53
2021/01/23 02:03:19;;;;;;;13.93;12.50;;;7.20;99.90;;;;;;4973094;28;20509;-52
2021/01/23 02:06:08;;;;;;;12.03;10.83;;;7.20;99.90;;;;;;4981264;28;20410;-56
2021/01/23 02:09:02;;;;;;;13.27;11.03;;;7.30;99.90;;;;;;4952466;28;20133;-55
2021/01/23 02:11:58;;;;;;;12.17;10.97;;;7.20;99.90;;;;;;4938951;28;20038;-53
2021/01/23 02:14:35;;;;;;;16.50;11.17;;;7.20;99.90;;;;;;4952306;28;20034;-58
2021/01/23 02:17:08;;;;;;;14.30;12.03;;;7.20;99.90;;;;;;4977550;28;20038;-57
2021/01/23 02:20:03;;;;;;;11.97;10.67;;;7.30;99.90;;;;;;4976029;28;20934;-58
2021/01/23 02:22:56;;;;;;;10.20;8.75;;;7.30;99.90;;;;;;4944193;28;20057;-54
2021/01/23 02:25:23;;;;;;;10.97;9.83;;;7.30;99.90;;;;;;4975853;28;20515;-57
2021/01/23 02:28:12;;;;;;;11.47;9.73;;;7.40;99.90;;;;;;4984793;28;20046;-52
2021/01/23 02:31:08;;;;;;;11.00;9.90;;;7.30;99.90;;;;;;4976401;28;20076;-56
2021/01/23 02:33:36;;;;;;;10.80;8.45;;;7.40;99.90;;;;;;4953442;28;20083;-55
2021/01/23 02:36:02;;;;;;;8.00;6.97;;;7.30;99.90;;;;;;4981033;28;20068;-55
2021/01/23 02:38:32;;;;;;;8.70;7.43;;;7.20;99.90;;;;;;4993075;28;20069;-57
2021/01/23 02:41:02;;;;;;;9.03;7.17;;;7.30;99.90;;;;;;4974116;28;20072;-57
2021/01/23 02:43:30;;;;;;;8.10;7.30;;;7.40;99.90;;;;;;4979489;28;20058;-57
2021/01/23 02:45:55;;;;;;;8.13;7.10;;;7.40;99.90;;;;;;4974007;28;20041;-57
2021/01/23 02:48:21;;;;;;;7.10;6.33;;;7.50;99.90;;;;;;4988482;28;20415;-57
2021/01/23 02:50:47;;;;;;;8.50;7.60;;;7.40;99.90;;;;;;4971558;28;20046;-57
2021/01/23 02:53:19;;;;;;;7.00;6.30;;;7.50;99.90;;;;;;4983062;28;20484;-56
2021/01/23 02:55:47;;;;;;;5.87;5.37;;;7.60;99.90;;;;;;4979182;28;20038;-57
2021/01/23 02:58:18;;;;;;;7.33;4.67;;;7.50;99.90;;;;;;4985488;28;20077;-57
2021/01/23 03:00:47;;;;;;;5.07;4.60;;;7.40;99.90;;;;;;4969665;28;20110;-58
2021/01/23 03:03:15;;;;;;;5.27;4.73;;;7.40;99.90;;;;;;4979544;28;20575;-53
2021/01/23 03:05:41;;;;;;;7.40;5.63;;;7.60;99.90;;;;;;4978089;27;20134;-57
2021/01/23 03:08:07;;;;;;;4.53;3.93;;;7.60;99.90;;;;;;4986177;28;20082;-55
2021/01/23 03:10:34;;;;;;;3.80;3.30;;;7.50;99.90;;;;;;4973076;28;20770;-57
2021/01/23 03:13:00;;;;;;;5.27;4.10;;;7.60;99.90;;;;;;4979333;28;20043;-57
2021/01/23 03:15:25;;;;;;;4.60;3.97;;;7.60;99.90;;;;;;4975762;28;20064;-56
2021/01/23 03:17:51;;;;;;;8.60;4.07;;;7.60;99.90;;;;;;4976670;28;20537;-52
2021/01/23 03:20:17;;;;;;;4.57;3.57;;;7.70;99.90;;;;;;4972743;28;20043;-56
2021/01/23 03:22:42;;;;;;;3.30;3.00;;;7.80;99.90;;;;;;4973409;28;20471;-57
2021/01/23 03:25:08;;;;;;;4.50;3.97;;;7.80;99.90;;;;;;4976347;28;20054;-57
2021/01/23 03:27:34;;;;;;;5.83;3.87;;;7.80;99.90;;;;;;4974903;28;20528;-54
2021/01/23 03:30:01;;;;;;;6.83;4.00;;;7.80;99.90;;;;;;4974790;28;20043;-57
2021/01/23 03:32:27;;;;;;;3.70;3.40;;;7.90;99.90;;;;;;4974681;28;20051;-57
2021/01/23 03:34:53;;;;;;;3.70;3.17;;;7.80;99.90;;;;;;4977665;28;20065;-56
2021/01/23 03:37:18;;;;;;;3.40;3.10;;;7.80;99.90;;;;;;4976211;28;20050;-57
2021/01/23 03:39:44;;;;;;;4.77;3.00;;;7.80;99.90;;;;;;4978540;28;20066;-57
2021/01/23 03:42:09;;;;;;;6.57;2.97;;;7.80;99.90;;;;;;4974548;28;20103;-56
2021/01/23 03:44:35;;;;;;;4.07;2.43;;;7.90;99.90;;;;;;4976908;28;20041;-56
2021/01/23 03:47:01;;;;;;;2.30;2.00;;;7.80;99.90;;;;;;4979668;28;20047;-55
2021/01/23 03:49:27;;;;;;;3.50;2.17;;;7.90;99.90;;;;;;4976274;28;20049;-57
2021/01/23 03:51:52;;;;;;;2.07;1.70;;;7.90;99.90;;;;;;4973017;28;22428;-53
2021/01/23 03:54:18;;;;;;;5.23;1.80;;;7.90;99.90;;;;;;4983281;28;20088;-56
2021/01/23 03:56:43;;;;;;;1.10;0.93;;;8.00;99.90;;;;;;4974665;28;20042;-56
2021/01/23 03:59:09;;;;;;;1.90;0.60;;;7.90;99.90;;;;;;4976160;28;20132;-55
2021/01/23 04:01:35;;;;;;;1.37;0.50;;;7.80;99.90;;;;;;4972750;28;20047;-54
2021/01/23 04:04:00;;;;;;;0.83;0.40;;;7.70;99.90;;;;;;4970348;28;20053;-55
2021/01/23 04:06:26;;;;;;;0.33;0.30;;;7.60;99.90;;;;;;4978523;28;20050;-57
2021/01/23 04:08:52;;;;;;;0.23;0.20;;;7.70;99.90;;;;;;4967335;28;20669;-55
2021/01/23 04:11:17;;;;;;;0.63;0.37;;;7.70;99.90;;;;;;4973225;28;20148;-57
2021/01/23 04:13:43;;;;;;;0.33;0.03;;;7.80;99.90;;;;;;4974231;28;20073;-55
2021/01/23 04:16:08;;;;;;;0.83;0.13;;;7.60;99.90;;;;;;4972949;28;20107;-53
2021/01/23 04:18:34;;;;;;;0.23;0.10;;;7.70;99.90;;;;;;4975636;28;20388;-57
2021/01/23 04:21:00;;;;;;;1.33;0.03;;;7.60;99.90;;;;;;4977792;28;20125;-57
2021/01/23 04:23:25;;;;;;;0.10;0.10;;;7.70;99.90;;;;;;4971951;28;20076;-56
2021/01/23 04:25:51;;;;;;;0.00;0.00;;;7.70;99.90;;;;;;4974329;28;20046;-52
2021/01/23 04:28:17;;;;;;;0.67;0.00;;;7.60;99.90;;;;;;4977482;28;20091;-54
2021/01/23 04:30:43;;;;;;;0.10;0.00;;;7.50;99.90;;;;;;4974792;28;20137;-57
2021/01/23 04:33:09;;;;;;;0.00;0.00;;;7.60;99.90;;;;;;4976392;28;20087;-55
2021/01/23 04:35:35;;;;;;;0.93;0.00;;;7.50;99.90;;;;;;4972950;28;20078;-57
2021/01/23 04:38:00;;;;;;;0.17;0.00;;;7.50;99.90;;;;;;4972949;28;20452;-57
2021/01/23 04:40:28;;;;;;;0.57;0.00;;;7.50;99.90;;;;;;4975653;28;20058;-56
2021/01/23 04:42:54;;;;;;;0.17;0.00;;;7.50;99.90;;;;;;4980441;28;20073;-57
2021/01/23 04:45:20;;;;;;;0.20;0.00;;;7.50;99.90;;;;;;4978643;28;20122;-57
2021/01/23 04:47:46;;;;;;;0.00;0.00;;;7.40;99.90;;;;;;4978422;28;20030;-57
2021/01/23 04:50:12;;;;;;;0.10;0.00;;;7.50;99.90;;;;;;4972510;28;20080;-57
2021/01/23 04:52:39;;;;;;;0.47;0.40;;;7.40;99.90;;;;;;4978030;28;20142;-56
2021/01/23 04:55:06;;;;;;;0.23;0.00;;;7.40;99.90;;;;;;4969935;28;20047;-54
2021/01/23 04:57:32;;;;;;;0.50;0.07;;;7.40;99.90;;;;;;4978113;28;20083;-57
2021/01/23 04:59:58;;;;;;;0.77;0.00;;;7.40;99.90;;;;;;4969730;28;20450;-54
2021/01/23 05:02:24;;;;;;;0.00;0.00;;;7.30;99.90;;;;;;4986991;28;20030;-57
2021/01/23 05:05:00;;;;;;;0.40;0.10;;;7.40;99.90;;;;;;4971796;28;20038;-58
2021/01/23 05:07:35;;;;;;;0.00;0.00;;;7.40;99.90;;;;;;4977346;28;20084;-56
2021/01/23 05:10:15;;;;;;;0.00;0.00;;;7.30;99.90;;;;;;4975128;28;20030;-56
2021/01/23 05:12:49;;;;;;;0.17;0.00;;;7.30;99.90;;;;;;4980846;28;20065;-57
2021/01/23 05:15:26;;;;;;;0.10;0.00;;;7.30;99.90;;;;;;4985036;28;20033;-56
2021/01/23 05:17:59;;;;;;;0.10;0.00;;;7.40;99.90;;;;;;4990102;28;20039;-56
2021/01/23 05:20:37;;;;;;;0.17;0.10;;;7.30;99.90;;;;;;4976214;28;20034;-58
2021/01/23 05:23:23;;;;;;;0.10;0.00;;;7.40;99.90;;;;;;4980186;28;20077;-55
2021/01/23 05:25:51;;;;;;;0.10;0.00;;;7.40;99.90;;;;;;4976323;28;20180;-56
2021/01/23 05:28:35;;;;;;;0.10;0.00;;;7.30;99.90;;;;;;4979625;28;20495;-55
2021/01/23 05:31:02;;;;;;;0.20;0.00;;;7.30;99.90;;;;;;4951710;28;20491;-57
2021/01/23 05:33:29;;;;;;;0.00;0.00;;;7.30;99.90;;;;;;4972633;28;20483;-56
2021/01/23 05:36:05;;;;;;;1.00;0.10;;;7.30;99.90;;;;;;4971310;28;20039;-55
2021/01/23 05:38:45;;;;;;;0.00;0.00;;;7.30;99.90;;;;;;4980458;28;20098;-55
2021/01/23 05:41:10;;;;;;;0.00;0.00;;;7.40;99.90;;;;;;4977459;28;20410;-55
2021/01/23 05:43:42;;;;;;;0.57;0.10;;;7.40;99.90;;;;;;4976496;28;20042;-54
2021/01/23 05:46:09;;;;;;;0.00;0.00;;;7.50;99.90;;;;;;4973955;28;20050;-56
2021/01/23 05:48:39;;;;;;;0.00;0.00;;;7.40;99.90;;;;;;4980843;28;20023;-55
2021/01/23 05:51:05;;;;;;;0.30;0.00;;;7.40;99.90;;;;;;4974192;28;20043;-55
2021/01/23 05:53:30;;;;;;;1.50;0.30;;;7.40;99.90;;;;;;4968578;28;20164;-54
2021/01/23 05:55:59;;;;;;;0.10;0.03;;;7.40;99.90;;;;;;4973951;28;20065;-55
2021/01/23 05:58:27;;;;;;;1.67;0.20;;;7.40;99.90;;;;;;4971668;28;20050;-54
2021/01/23 06:00:54;;;;;;;0.10;0.00;;;7.50;99.90;;;;;;4970314;28;20171;-56
2021/01/23 06:03:21;;;;;;;0.20;0.10;;;7.50;99.90;;;;;;4971002;28;20038;-56
2021/01/23 06:05:52;;;;;;;0.20;0.10;;;7.60;99.90;;;;;;4977425;28;20129;-55
2021/01/23 06:08:44;;;;;;;1.80;0.10;;;7.50;99.90;;;;;;4972252;28;20079;-54
2021/01/23 06:11:19;;;;;;;0.00;0.00;;;7.50;99.90;;;;;;4955946;28;20519;-57
2021/01/23 06:13:48;;;;;;;;;;;7.50;99.90;;;;;;4971634;28;20087;-53
2021/01/23 06:16:32;;;;;;;0.00;0.00;;;7.50;99.90;;;;;;4971108;28;19922;-55
2021/01/23 06:19:27;;;;;;;0.30;0.00;;;7.50;99.90;;;;;;4956243;28;20066;-54
2021/01/23 06:21:59;;;;;;;0.53;0.00;;;7.50;99.90;;;;;;4974929;28;20046;-57
2021/01/23 06:24:30;;;;;;;0.20;0.10;;;7.60;99.90;;;;;;4983501;28;20048;-57
2021/01/23 06:26:58;;;;;;;0.93;0.27;;;7.60;99.90;;;;;;4988649;28;20088;-56
2021/01/23 06:29:36;;;;;;;0.37;0.00;;;7.60;99.90;;;;;;4978094;28;20468;-56
2021/01/23 06:32:14;;;;;;;0.10;0.10;;;7.60;99.90;;;;;;4982983;28;20050;-57
2021/01/23 06:34:51;;;;;;;0.33;0.10;;;7.70;99.90;;;;;;4984808;28;20041;-56
2021/01/23 06:37:37;;;;;;;1.17;0.10;;;7.70;99.90;;;;;;4976498;28;20138;-56
2021/01/23 06:40:09;;;;;;;0.20;0.00;;;7.70;99.90;;;;;;4950827;28;20122;-55
2021/01/23 06:42:47;;;;;;;0.10;0.00;;;7.70;99.90;;;;;;4990773;28;20041;-57
2021/01/23 06:45:23;;;;;;;1.30;0.63;;;7.80;99.90;;;;;;4981121;28;20044;-55
2021/01/23 06:47:57;;;;;;;0.20;0.10;;;7.80;99.90;;;;;;4978158;28;20034;-54
2021/01/23 06:50:32;;;;;;;0.17;0.03;;;7.90;99.90;;;;;;4973699;28;20137;-55
2021/01/23 06:52:58;;;;;;;;;;;8.00;99.90;;;;;;4977940;28;20035;-54
2021/01/23 06:55:49;;;;;;;0.10;0.10;;;7.90;99.90;;;;;;4978761;28;19921;-56
2021/01/23 06:58:34;;;;;;;0.10;0.10;;;7.90;99.90;;;;;;4982237;28;20051;-53
2021/01/23 07:01:00;;;;;;;0.50;0.15;;;8.00;99.90;;;;;;4940054;28;20044;-52
2021/01/23 07:03:30;;;;;;;0.10;0.10;;;8.00;99.90;;;;;;4980690;28;20051;-55
2021/01/23 07:06:00;;;;;;;0.20;0.10;;;8.10;99.90;;;;;;4974041;28;20710;-57
2021/01/23 07:08:31;;;;;;;0.90;0.30;;;8.10;99.90;;;;;;4978707;28;20191;-55
2021/01/23 07:11:13;;;;;;;0.00;0.00;;;8.20;99.90;;;;;;4972083;28;20065;-52
2021/01/23 07:14:00;;;;;;;0.57;0.17;;;8.20;99.90;;;;;;4977633;28;20087;-55
2021/01/23 07:16:27;;;;;;;0.23;0.10;;;8.20;99.90;;;;;;4953833;28;20050;-55
2021/01/23 07:18:54;;;;;;;0.30;0.10;;;8.10;99.90;;;;;;4988496;28;20051;-52
2021/01/23 07:21:21;;;;;;;0.53;0.20;;;8.20;99.90;;;;;;4973815;28;20503;-51
2021/01/23 07:23:48;;;;;;;0.87;0.20;;;8.30;99.90;;;;;;4979167;28;20069;-56
2021/01/23 07:26:15;;;;;;;0.30;0.20;;;8.30;99.90;;;;;;4976465;28;20046;-52
2021/01/23 07:28:54;;;;;;;1.10;0.20;;;8.30;99.90;;;;;;4972170;28;20143;-57
2021/01/23 07:31:25;;;;;;;0.30;0.20;;;8.30;99.90;;;;;;4976937;28;20046;-57
2021/01/23 07:33:51;;;;;;;0.77;0.30;;;8.30;99.90;;;;;;4974939;28;20035;-56
2021/01/23 07:36:39;;;;;;;1.80;0.40;;;8.40;99.90;;;;;;4977305;28;20113;-55
2021/01/23 07:39:11;;;;;;;0.30;0.30;;;8.40;99.90;;;;;;4952388;28;20120;-54
2021/01/23 07:41:40;;;;;;;1.43;0.50;;;8.40;99.90;;;;;;4967107;28;20046;-55
2021/01/23 07:44:08;;;;;;;0.30;0.30;;;8.40;99.90;;;;;;4980186;28;20051;-53
2021/01/23 07:46:44;;;;;;;0.50;0.50;;;8.40;99.90;;;;;;4976075;28;20096;-58
2021/01/23 07:49:28;;;;;;;0.67;0.30;;;8.50;99.90;;;;;;4974755;28;20038;-57
2021/01/23 07:52:09;;;;;;;2.57;0.60;;;8.50;99.90;;;;;;4988964;28;20092;-56
2021/01/23 07:54:51;;;;;;;1.63;0.60;;;8.50;99.90;;;;;;4973234;28;20047;-54
2021/01/23 07:57:17;;;;;;;0.30;0.27;;;8.50;99.90;;;;;;4970848;28;20053;-54
2021/01/23 07:59:47;;;;;;;0.50;0.30;;;8.50;99.90;;;;;;4973155;28;20043;-56
2021/01/23 08:02:13;;;;;;;2.90;0.80;;;8.70;99.90;;;;;;4970367;28;20490;-55
2021/01/23 08:04:45;;;;;;;3.60;1.00;;;8.70;99.90;;;;;;4976109;28;20049;-55
2021/01/23 08:07:31;;;;;;;4.93;1.67;;;8.80;99.90;;;;;;4967010;28;20039;-58
2021/01/23 08:10:27;;;;;;;2.33;1.30;;;8.90;99.90;;;;;;4939489;28;20042;-56
2021/01/23 08:13:01;;;;;;;1.50;0.70;;;8.90;99.90;;;;;;4973461;28;20026;-58
2021/01/23 08:15:31;;;;;;;2.07;0.80;;;9.00;99.90;;;;;;4970780;28;20050;-58
2021/01/23 08:18:01;;;;;;;1.00;0.77;;;9.00;99.90;;;;;;4973517;28;20042;-56
2021/01/23 08:20:33;;;;;;;2.07;0.90;;;8.90;99.90;;;;;;4981485;28;20065;-56
2021/01/23 08:23:18;;;;;;;3.67;1.00;;;9.00;99.90;;;;;;4970773;28;20708;-56
2021/01/23 08:25:48;;;;;;;1.40;1.08;;;9.00;99.90;;;;;;4978151;28;20030;-58
2021/01/23 08:28:15;;;;;;;1.43;0.80;;;9.10;99.90;;;;;;4971663;28;20076;-56
2021/01/23 08:30:41;;;;;;;3.93;1.20;;;9.10;99.90;;;;;;4978204;28;20499;-55
2021/01/23 08:33:09;;;;;;;2.97;1.00;;;9.10;99.90;;;;;;4974377;28;20045;-56
2021/01/23 08:35:37;;;;;;;1.67;0.80;;;9.10;99.90;;;;;;5002990;27;20046;-56
2021/01/23 08:38:04;;;;;;;1.40;0.77;;;9.10;99.90;;;;;;4970237;28;20046;-55
2021/01/23 08:40:29;;;;;;;1.50;1.10;;;9.20;99.90;;;;;;4979998;28;20069;-56
2021/01/23 08:42:55;;;;;;;1.90;1.40;;;9.20;99.90;;;;;;4977170;28;20047;-57
2021/01/23 08:45:23;;;;;;;1.07;0.90;;;9.30;99.90;;;;;;4981043;28;20395;-59
2021/01/23 08:47:49;;;;;;;3.33;1.20;;;9.40;99.90;;;;;;4976616;28;20053;-57
2021/01/23 08:50:15;;;;;;;1.70;0.63;;;9.30;99.90;;;;;;4978236;27;20038;-56
2021/01/23 08:52:41;;;;;;;1.00;0.90;;;9.30;99.90;;;;;;4980478;28;20053;-56
2021/01/23 08:55:07;;;;;;;5.22;1.55;;;9.30;99.90;;;;;;4973423;28;20129;-58
2021/01/23 08:57:34;;;;;;;2.07;1.10;;;9.30;99.90;;;;;;4968753;28;20042;-57
2021/01/23 09:00:00;;;;;;;1.50;1.17;;;9.30;99.90;;;;;;4962982;28;20123;-54
2021/01/23 09:02:26;;;;;;;1.67;1.10;;;9.30;99.90;;;;;;4966959;28;20056;-58
2021/01/23 09:04:51;;;;;;;3.07;1.23;;;9.30;99.90;;;;;;4968882;28;20050;-58
2021/01/23 09:07:18;;;;;;;1.47;1.20;;;9.30;99.90;;;;;;4980923;28;20521;-57
2021/01/23 09:09:45;;;;;;;2.70;1.60;;;9.20;99.90;;;;;;4966793;28;20046;-56
2021/01/23 09:12:12;;;;;;;2.13;1.60;;;9.40;99.90;;;;;;4972363;28;20119;-58
2021/01/23 09:14:38;;;;;;;2.00;1.45;;;9.40;99.90;;;;;;4970931;28;20042;-57
2021/01/23 09:17:04;;;;;;;4.40;1.70;;;9.40;99.90;;;;;;4971091;28;20671;-57
2021/01/23 09:19:30;;;;;;;1.98;1.70;;;9.50;99.90;;;;;;4967801;28;20487;-56
2021/01/23 09:21:55;;;;;;;2.37;1.93;;;9.50;99.90;;;;;;4967560;28;20244;-56
2021/01/23 09:24:21;;;;;;;2.40;2.17;;;9.40;99.90;;;;;;4970910;28;20153;-58
2021/01/23 09:26:47;;;;;;;3.17;2.30;;;9.50;99.90;;;;;;4969221;28;20065;-57
2021/01/23 09:29:13;;;;;;;5.03;3.10;;;9.60;99.90;;;;;;4966953;28;20050;-57
2021/01/23 09:31:39;;;;;;;6.78;3.72;;;9.50;99.90;;;;;;4964932;28;20038;-57
2021/01/23 09:34:05;;;;;;;4.77;3.77;;;9.50;99.90;;;;;;4968946;28;20046;-58
2021/01/23 09:36:32;;;;;;;5.83;3.77;;;9.50;99.90;;;;;;4970480;28;20114;-56
2021/01/23 09:38:57;;;;;;;5.07;4.20;;;9.50;99.90;;;;;;4974921;28;20058;-56
2021/01/23 09:41:23;;;;;;;4.97;4.50;;;9.60;99.90;;;;;;4965155;28;20058;-57
2021/01/23 09:43:49;;;;;;;8.83;5.87;;;9.50;99.90;;;;;;4970171;28;20085;-55
2021/01/23 09:46:14;;;;;;;7.33;5.70;;;9.50;99.90;;;;;;4964253;28;20959;-56
2021/01/23 09:48:40;;;;;;;11.73;6.57;;;9.60;99.90;;;;;;4969510;28;20547;-56
2021/01/23 09:51:06;;;;;;;7.75;5.50;;;9.60;99.90;;;;;;4969487;28;20045;-58
2021/01/23 09:53:32;;;;;;;7.75;6.18;;;9.60;99.90;;;;;;4972206;28;20038;-57
2021/01/23 09:55:57;;;;;;;9.00;6.95;;;9.70;99.90;;;;;;4967047;28;20035;-57
2021/01/23 09:58:23;;;;;;;12.43;7.07;;;9.80;99.90;;;;;;4971239;28;20503;-57
2021/01/23 10:00:49;;;;;;;8.40;7.50;;;9.80;99.90;;;;;;4984592;28;20038;-57
2021/01/23 10:03:15;;;;;;;8.33;7.40;;;9.80;99.90;;;;;;4974055;28;20075;-56
2021/01/23 10:05:41;;;;;;;8.83;7.93;;;9.90;99.90;;;;;;4981715;28;20035;-55
2021/01/23 10:08:07;;;;;;;7.57;6.67;;;10.00;99.90;;;;;;4975498;28;20042;-57
2021/01/23 10:10:32;;;;;;;8.77;7.00;;;10.00;99.90;;;;;;4978064;28;20042;-57
2021/01/23 10:12:58;;;;;;;10.80;7.43;;;10.00;99.90;;;;;;4974546;28;20038;-57
2021/01/23 10:15:24;;;;;;;6.53;5.82;;;10.10;99.90;;;;;;4972967;28;20031;-57
2021/01/23 10:17:50;;;;;;;7.18;6.40;;;10.00;99.90;;;;;;4976279;28;20058;-56
2021/01/23 10:20:16;;;;;;;8.30;6.65;;;10.00;99.90;;;;;;4981772;28;20498;-55
2021/01/23 10:22:42;;;;;;;7.33;5.93;;;10.20;99.90;;;;;;4973884;28;20035;-56
2021/01/23 10:25:08;;;;;;;4.55;3.97;;;10.10;99.90;;;;;;4979405;28;20490;-55
2021/01/23 10:27:34;;;;;;;6.13;4.82;;;10.00;99.60;;;;;;4975087;28;20034;-56
2021/01/23 10:30:00;;;;;;;6.10;5.50;;;10.10;99.90;;;;;;4985836;28;20042;-57
2021/01/23 10:32:26;;;;;;;6.95;5.35;;;10.00;99.90;;;;;;4972628;28;20111;-57
2021/01/23 10:34:52;;;;;;;5.95;5.28;;;10.10;99.90;;;;;;4977006;28;20127;-56
2021/01/23 10:37:18;;;;;;;7.70;5.32;;;10.10;99.90;;;;;;4972126;28;20082;-57
2021/01/23 10:39:44;;;;;;;8.32;6.70;;;10.10;99.90;;;;;;4975653;28;20072;-55
2021/01/23 10:42:09;;;;;;;6.57;5.57;;;10.10;99.40;;;;;;4983905;28;20042;-57
2021/01/23 10:44:39;;;;;;;8.43;6.22;;;9.80;98.50;;;;;;4974848;28;20101;-56
2021/01/23 10:47:11;;;;;;;7.68;6.90;;;9.90;99.90;;;;;;4977262;28;20084;-52
2021/01/23 10:49:36;;;;;;;7.95;6.65;;;10.00;99.90;;;;;;4975092;28;20047;-54
2021/01/23 10:52:02;;;;;;;9.23;7.30;;;10.10;99.90;;;;;;4981732;28;20125;-56
2021/01/23 10:54:28;;;;;;;7.50;6.70;;;10.10;99.90;;;;;;4968018;28;20131;-56
2021/01/23 10:56:54;;;;;;;9.32;6.85;;;10.00;99.90;;;;;;4972535;28;20070;-56
2021/01/23 10:59:20;;;;;;;9.48;7.78;;;10.00;99.90;;;;;;4976650;28;20073;-55
2021/01/23 11:01:47;;;;;;;8.63;7.65;;;10.10;99.90;;;;;;4969617;28;20077;-53
2021/01/23 11:04:13;;;;;;;7.53;6.47;;;10.10;99.90;;;;;;4970763;28;20031;-54
2021/01/23 11:06:39;;;;;;;8.13;6.63;;;10.10;99.90;;;;;;4969932;28;20057;-53
2021/01/23 11:09:05;;;;;;;11.18;7.45;;;10.00;98.70;;;;;;4964844;28;20431;-52
2021/01/23 11:11:31;;;;;;;7.87;6.73;;;10.20;99.10;;;;;;4968957;28;20495;-51
2021/01/23 11:13:57;;;;;;;7.20;6.07;;;10.10;99.90;;;;;;4965523;28;20046;-51
2021/01/23 11:16:23;;;;;;;8.45;7.55;;;10.20;99.90;;;;;;4970080;28;20058;-56
2021/01/23 11:18:49;;;;;;;8.18;6.32;;;10.30;99.90;;;;;;4968268;28;20069;-56
2021/01/23 11:21:14;;;;;;;6.43;5.80;;;10.30;99.20;;;;;;4965791;28;20042;-55
2021/01/23 11:23:42;;;;;;;11.13;6.15;;;10.30;99.90;;;;;;4962323;28;20043;-56
2021/01/23 11:26:07;;;;;;;10.57;6.50;;;10.30;99.20;;;;;;4968176;28;20051;-57
2021/01/23 11:28:33;;;;;;;9.15;6.10;;;10.30;99.40;;;;;;4968518;28;20042;-57
2021/01/23 11:30:59;;;;;;;6.63;5.60;;;10.30;99.90;;;;;;4967915;28;20035;-57
2021/01/23 11:33:24;;;;;;;8.88;5.88;;;10.30;99.80;;;;;;4972407;28;20043;-56
2021/01/23 11:35:50;;;;;;;8.85;5.85;;;10.40;99.70;;;;;;4970028;28;20076;-55
2021/01/23 11:38:16;;;;;;;6.78;5.25;;;10.40;98.10;;;;;;4973780;28;20041;-55
2021/01/23 11:40:42;;;;;;;6.63;5.68;;;10.50;97.20;;;;;;4971282;28;20035;-53
2021/01/23 11:43:09;;;;;;;6.90;4.70;;;10.40;98.80;;;;;;4968291;28;20130;-56
2021/01/23 11:45:35;;;;;;;8.98;5.78;;;10.40;98.60;;;;;;4970897;27;20039;-54
2021/01/23 11:48:01;;;;;;;6.97;4.75;;;10.60;99.00;;;;;;4972576;28;20387;-56
2021/01/23 11:50:27;;;;;;;5.93;5.22;;;10.60;98.30;;;;;;4972360;28;20391;-55
2021/01/23 11:52:52;;;;;;;6.75;5.28;;;10.60;98.00;;;;;;4969932;28;20031;-54
2021/01/23 11:55:18;;;;;;;6.38;4.00;;;10.40;98.00;;;;;;4971188;28;20050;-56
2021/01/23 11:57:44;;;;;;;5.88;4.68;;;10.50;96.30;;;;;;4974675;28;20077;-56
2021/01/23 12:00:10;;;;;;;5.93;4.78;;;10.60;96.60;;;;;;4968622;28;20502;-55
2021/01/23 12:02:35;;;;;;;6.40;3.90;;;10.80;98.00;;;;;;4972337;28;20472;-56
2021/01/23 12:05:02;;;;;;;5.65;5.05;;;10.80;97.20;;;;;;4982126;28;20066;-55
2021/01/23 12:07:27;;;;;;;5.13;4.45;;;11.00;96.10;;;;;;4979574;28;20042;-55
2021/01/23 12:09:53;;;;;;;6.32;4.93;;;10.90;96.30;;;;;;4989812;28;20390;-55
2021/01/23 12:12:19;;;;;;;4.65;4.25;;;11.10;97.20;;;;;;4978693;28;20051;-55
2021/01/23 12:14:44;;;;;;;5.00;4.50;;;11.10;95.80;;;;;;4978028;28;20115;-56
2021/01/23 12:17:10;;;;;;;5.93;4.82;;;11.20;96.30;;;;;;4970167;28;20065;-52
2021/01/23 12:19:36;;;;;;;4.97;4.28;;;11.30;97.30;;;;;;4979185;28;20039;-54
2021/01/23 12:22:02;;;;;;;6.07;4.80;;;11.30;96.70;;;;;;4972958;28;20070;-53
2021/01/23 12:24:31;;;;;;;4.65;4.03;;;11.30;97.00;;;;;;4974543;28;20415;-55
2021/01/23 12:26:58;;;;;;;10.18;4.55;;;11.30;95.80;;;;;;4979193;28;20935;-53
2021/01/23 12:29:23;;;;;;;4.82;4.40;;;11.40;96.40;;;;;;4982281;28;20034;-53
2021/01/23 12:31:49;;;;;;;6.25;4.43;;;11.50;95.50;;;;;;4975054;28;20104;-55
2021/01/23 12:34:15;;;;;;;7.80;4.80;;;11.30;94.00;;;;;;4978997;27;20049;-55
2021/01/23 12:36:40;;;;;;;5.30;4.65;;;11.20;95.50;;;;;;4975885;28;20049;-54
2021/01/23 12:39:06;;;;;;;6.70;5.35;;;11.30;96.20;;;;;;4971286;28;20415;-55
2021/01/23 12:41:31;;;;;;;4.80;4.35;;;11.30;95.50;;;;;;4980834;28;20419;-54
2021/01/23 12:43:57;;;;;;;5.05;4.55;;;11.30;95.20;;;;;;4978587;28;20466;-56
2021/01/23 12:46:23;;;;;;;6.72;5.03;;;11.40;96.10;;;;;;4981612;28;20035;-55
2021/01/23 12:48:49;;;;;;;6.03;4.50;;;11.30;95.80;;;;;;4974749;28;20045;-56
2021/01/23 12:51:17;;;;;;;6.65;4.57;;;11.20;95.20;;;;;;4983179;28;20035;-54
2021/01/23 12:53:42;;;;;;;6.25;5.00;;;11.20;94.90;;;;;;4972258;28;20046;-54
2021/01/23 12:56:08;;;;;;;5.00;4.45;;;11.30;95.60;;;;;;4970281;28;20054;-53
2021/01/23 12:58:34;;;;;;;5.38;4.18;;;11.20;95.20;;;;;;4965525;28;20054;-54